Time;durP1;ratioP1;P1;durP2;ratioP2;P2;SDS_P1;SDS_P2;PMS_P1;PMS_P2;Temp;Humidity;BMP_temperature;BMP_pressure;BME280_temperature;BME280_humidity;BME280_pressure;Samples;Min_cycle;Max_cycle;Signal;HPM_P1;HPM_P2
2023/07/07 00:00:04;;;;;;;3.10;2.38;;;14.90;99.90;;;;;;5033608;28;20325;-62
2023/07/07 00:02:30;;;;;;;5.03;2.75;;;14.80;99.90;;;;;;5043488;28;20098;-62
2023/07/07 00:04:56;;;;;;;6.18;2.67;;;14.80;99.90;;;;;;5041082;28;20040;-62
2023/07/07 00:07:22;;;;;;;3.95;2.70;;;14.70;99.90;;;;;;4997246;28;20393;-62
2023/07/07 00:09:48;;;;;;;5.10;2.70;;;14.70;99.90;;;;;;5032329;28;20045;-62
2023/07/07 00:12:16;;;;;;;4.60;2.65;;;14.60;99.90;;;;;;5033507;28;20052;-62
2023/07/07 00:14:42;;;;;;;3.30;2.30;;;14.60;99.90;;;;;;5035670;28;20048;-61
2023/07/07 00:17:12;;;;;;;4.88;2.38;;;14.60;99.90;;;;;;5024561;28;20464;-62
2023/07/07 00:19:38;;;;;;;6.53;3.10;;;14.60;99.90;;;;;;5041158;28;20047;-62
2023/07/07 00:22:06;;;;;;;5.57;2.72;;;14.60;99.90;;;;;;5037822;28;20037;-62
2023/07/07 00:24:33;;;;;;;4.35;2.65;;;14.60;99.90;;;;;;5027510;28;20337;-62
2023/07/07 00:26:59;;;;;;;5.88;2.60;;;14.60;99.90;;;;;;5048022;28;20049;-62
2023/07/07 00:29:25;;;;;;;7.38;2.63;;;14.60;99.90;;;;;;5031515;28;20041;-62
2023/07/07 00:31:51;;;;;;;4.53;2.40;;;14.50;99.90;;;;;;5040622;28;20042;-62
2023/07/07 00:34:17;;;;;;;5.28;2.70;;;14.60;99.90;;;;;;5040501;28;20041;-62
2023/07/07 00:36:43;;;;;;;6.15;3.08;;;14.60;99.90;;;;;;5039214;28;20033;-62
2023/07/07 00:39:10;;;;;;;5.38;2.65;;;14.60;99.90;;;;;;5025603;28;20295;-62
2023/07/07 00:41:36;;;;;;;4.82;2.78;;;14.50;99.90;;;;;;5042058;28;20033;-62
2023/07/07 00:44:08;;;;;;;4.30;2.50;;;14.50;99.90;;;;;;5042872;28;20037;-62
2023/07/07 00:46:34;;;;;;;4.78;3.00;;;14.40;99.90;;;;;;5035579;28;20049;-63
2023/07/07 00:49:03;;;;;;;3.45;2.42;;;14.40;99.90;;;;;;5033874;28;20040;-63
2023/07/07 00:51:47;;;;;;;7.45;3.70;;;14.40;99.90;;;;;;5041077;28;20523;-63
2023/07/07 00:54:18;;;;;;;5.53;3.03;;;14.50;99.90;;;;;;5042284;28;20048;-63
2023/07/07 00:56:48;;;;;;;6.03;3.45;;;14.40;99.90;;;;;;5037432;28;20489;-63
2023/07/07 00:59:22;;;;;;;5.47;2.47;;;14.40;99.90;;;;;;5032288;28;20404;-63
2023/07/07 01:01:55;;;;;;;5.30;2.63;;;14.40;99.90;;;;;;5041460;28;20128;-63
2023/07/07 01:04:22;;;;;;;7.00;3.23;;;14.40;99.90;;;;;;5036646;28;20582;-62
2023/07/07 01:06:53;;;;;;;6.72;3.72;;;14.40;99.90;;;;;;5040375;28;20295;-62
2023/07/07 01:09:19;;;;;;;6.15;3.85;;;14.40;99.90;;;;;;5031067;28;20096;-63
2023/07/07 01:11:46;;;;;;;7.50;4.10;;;14.40;99.90;;;;;;5042712;28;20068;-62
2023/07/07 01:14:25;;;;;;;7.90;4.07;;;14.40;99.90;;;;;;5036714;28;20041;-62
2023/07/07 01:17:06;;;;;;;6.25;4.10;;;14.40;99.90;;;;;;5037780;28;20516;-63
2023/07/07 01:20:13;;;;;;;5.68;4.22;;;14.30;99.90;;;;;;5039563;28;20037;-62
2023/07/07 01:22:51;;;;;;;5.25;3.50;;;14.30;99.90;;;;;;5034122;28;20045;-62
2023/07/07 01:25:22;;;;;;;6.05;3.75;;;14.30;99.90;;;;;;5042121;28;20063;-63
2023/07/07 01:28:07;;;;;;;7.88;4.95;;;14.20;99.90;;;;;;5039825;28;20056;-63
2023/07/07 01:30:33;;;;;;;7.35;4.32;;;14.20;99.90;;;;;;5040050;28;20516;-62
2023/07/07 01:33:04;;;;;;;7.60;4.07;;;14.10;99.90;;;;;;5044577;28;20047;-62
2023/07/07 01:35:30;;;;;;;4.95;3.53;;;14.10;99.90;;;;;;5045945;28;20049;-63
2023/07/07 01:37:59;;;;;;;7.35;4.00;;;14.00;99.90;;;;;;5043796;28;20098;-63
2023/07/07 01:40:50;;;;;;;9.20;4.47;;;14.00;99.90;;;;;;5034733;28;20071;-62
2023/07/07 01:43:31;;;;;;;6.20;3.70;;;14.00;99.90;;;;;;5027022;28;20400;-63
2023/07/07 01:46:19;;;;;;;8.07;4.85;;;13.90;99.90;;;;;;5042188;28;20040;-63
2023/07/07 01:48:51;;;;;;;5.70;3.95;;;13.90;99.90;;;;;;5039931;28;20489;-63
2023/07/07 01:51:19;;;;;;;7.07;4.25;;;13.90;99.90;;;;;;5044870;28;20573;-63
2023/07/07 01:53:47;;;;;;;10.45;4.70;;;13.80;99.90;;;;;;5044964;28;20047;-63
2023/07/07 01:56:18;;;;;;;7.43;4.18;;;13.80;99.90;;;;;;5029100;28;20045;-62
2023/07/07 01:58:45;;;;;;;6.32;3.80;;;13.70;99.90;;;;;;5031395;28;20080;-62
2023/07/07 02:01:11;;;;;;;7.90;3.90;;;13.70;99.90;;;;;;5041485;28;20025;-62
2023/07/07 02:03:37;;;;;;;4.88;4.03;;;13.70;99.90;;;;;;5025293;28;20267;-62
2023/07/07 02:06:03;;;;;;;5.70;3.95;;;13.70;99.90;;;;;;5043901;28;20255;-62
2023/07/07 02:08:28;;;;;;;9.90;4.05;;;13.70;99.90;;;;;;5049107;28;20403;-62
2023/07/07 02:10:54;;;;;;;7.07;4.35;;;13.60;99.90;;;;;;5047564;28;20048;-63
2023/07/07 02:13:20;;;;;;;7.20;3.88;;;13.60;99.90;;;;;;5042333;28;20516;-63
2023/07/07 02:15:46;;;;;;;6.63;4.10;;;13.60;99.90;;;;;;5041336;28;20045;-63
2023/07/07 02:18:11;;;;;;;5.60;4.25;;;13.50;99.90;;;;;;5041529;28;20072;-63
2023/07/07 02:20:37;;;;;;;6.30;3.67;;;13.50;99.90;;;;;;5046385;28;20484;-63
2023/07/07 02:23:03;;;;;;;8.73;5.25;;;13.50;99.90;;;;;;5039308;28;20029;-62
2023/07/07 02:25:28;;;;;;;9.25;4.72;;;13.40;99.90;;;;;;5036405;28;20162;-63
2023/07/07 02:27:54;;;;;;;5.65;4.10;;;13.50;99.90;;;;;;5040822;28;20040;-63
2023/07/07 02:30:20;;;;;;;10.75;4.95;;;13.40;99.90;;;;;;5034804;28;20195;-63
2023/07/07 02:32:46;;;;;;;5.20;4.22;;;13.40;99.90;;;;;;5041886;28;20524;-62
2023/07/07 02:35:13;;;;;;;5.57;4.32;;;13.40;99.90;;;;;;5039126;28;20497;-62
2023/07/07 02:37:39;;;;;;;8.38;4.57;;;13.40;99.90;;;;;;5039840;28;20049;-63
2023/07/07 02:40:06;;;;;;;6.53;4.35;;;13.40;99.90;;;;;;5041673;28;20041;-63
2023/07/07 02:42:32;;;;;;;12.05;5.40;;;13.30;99.90;;;;;;5039981;28;20049;-62
2023/07/07 02:44:58;;;;;;;6.97;5.10;;;13.30;99.90;;;;;;5025465;28;20045;-63
2023/07/07 02:47:23;;;;;;;8.23;5.03;;;13.30;99.90;;;;;;5045060;28;20492;-62
2023/07/07 02:49:49;;;;;;;11.50;6.00;;;13.30;99.90;;;;;;5034940;28;20112;-63
2023/07/07 02:52:15;;;;;;;9.57;6.25;;;13.30;99.90;;;;;;5042958;28;20028;-63
2023/07/07 02:54:41;;;;;;;7.57;5.90;;;13.30;99.90;;;;;;5043533;28;20043;-63
2023/07/07 02:57:06;;;;;;;9.63;6.40;;;13.30;99.90;;;;;;5044176;28;20113;-63
2023/07/07 02:59:32;;;;;;;8.98;5.80;;;13.30;99.90;;;;;;5044204;28;20044;-63
2023/07/07 03:01:58;;;;;;;10.48;7.03;;;13.30;99.90;;;;;;5048789;28;20439;-62
2023/07/07 03:04:24;;;;;;;12.68;7.22;;;13.40;99.90;;;;;;5025402;28;20040;-62
2023/07/07 03:06:51;;;;;;;13.65;7.43;;;13.40;99.90;;;;;;5043639;28;20041;-63
2023/07/07 03:09:16;;;;;;;9.20;6.85;;;13.40;99.90;;;;;;5037619;28;20053;-63
2023/07/07 03:11:42;;;;;;;10.10;7.88;;;13.40;99.90;;;;;;5038814;28;20041;-62
2023/07/07 03:14:08;;;;;;;9.85;8.20;;;13.40;99.90;;;;;;5038863;28;20496;-63
2023/07/07 03:16:33;;;;;;;9.80;7.47;;;13.50;99.90;;;;;;5046940;28;20037;-62
2023/07/07 03:19:02;;;;;;;10.95;8.77;;;13.50;99.90;;;;;;5035048;28;20049;-63
2023/07/07 03:21:28;;;;;;;10.27;8.70;;;13.50;99.90;;;;;;5036547;28;20045;-63
2023/07/07 03:23:55;;;;;;;13.07;8.93;;;13.50;99.90;;;;;;5039722;28;20034;-63
2023/07/07 03:26:23;;;;;;;12.65;9.30;;;13.50;99.90;;;;;;5042520;28;20120;-63
2023/07/07 03:28:48;;;;;;;12.55;8.35;;;13.60;99.90;;;;;;5043812;28;20052;-62
2023/07/07 03:31:26;;;;;;;12.60;10.07;;;13.60;99.90;;;;;;5041448;28;20047;-63
2023/07/07 03:33:55;;;;;;;13.18;10.50;;;13.60;99.90;;;;;;5046743;28;20136;-63
2023/07/07 03:36:24;;;;;;;14.25;9.70;;;13.60;99.90;;;;;;5042001;28;20455;-63
2023/07/07 03:38:50;;;;;;;14.07;10.05;;;13.60;99.90;;;;;;5030568;28;20094;-63
2023/07/07 03:41:21;;;;;;;11.82;9.48;;;13.60;99.90;;;;;;5038542;28;20545;-63
2023/07/07 03:43:48;;;;;;;10.77;8.40;;;13.60;99.90;;;;;;5033677;28;20424;-62
2023/07/07 03:46:19;;;;;;;12.95;9.35;;;13.60;99.90;;;;;;5037784;28;20557;-63
2023/07/07 03:48:46;;;;;;;13.43;11.02;;;13.60;99.90;;;;;;5042168;28;20041;-63
2023/07/07 03:51:13;;;;;;;13.20;9.40;;;13.60;99.90;;;;;;5038394;28;20033;-63
2023/07/07 03:53:39;;;;;;;16.00;11.38;;;13.50;99.90;;;;;;5043160;28;20041;-63
2023/07/07 03:56:06;;;;;;;17.33;10.95;;;13.60;99.90;;;;;;5035170;28;20048;-63
2023/07/07 03:58:32;;;;;;;16.65;10.35;;;13.60;99.90;;;;;;5030835;28;20048;-63
2023/07/07 04:01:02;;;;;;;13.25;10.50;;;13.60;99.90;;;;;;5039061;28;20049;-63
2023/07/07 04:03:28;;;;;;;15.05;10.40;;;13.60;99.90;;;;;;5041762;28;20071;-62
2023/07/07 04:05:55;;;;;;;15.52;10.85;;;13.60;99.90;;;;;;5035989;28;20029;-63
2023/07/07 04:08:26;;;;;;;12.73;9.82;;;13.60;99.90;;;;;;5047475;28;20050;-63
2023/07/07 04:11:19;;;;;;;17.70;10.63;;;13.70;99.90;;;;;;5035694;28;20045;-63
2023/07/07 04:13:48;;;;;;;12.32;10.73;;;13.70;99.90;;;;;;5039719;28;20045;-63
2023/07/07 04:16:15;;;;;;;15.32;13.60;;;13.70;99.90;;;;;;5036053;28;20459;-62
2023/07/07 04:18:42;;;;;;;17.30;11.60;;;13.70;99.90;;;;;;5041384;28;20044;-62
2023/07/07 04:21:10;;;;;;;14.50;11.45;;;13.70;99.90;;;;;;5037211;28;20584;-63
2023/07/07 04:23:38;;;;;;;17.33;11.90;;;13.80;99.90;;;;;;5040791;28;20108;-62
2023/07/07 04:26:05;;;;;;;14.43;12.02;;;13.80;99.90;;;;;;5037199;28;20547;-63
2023/07/07 04:28:32;;;;;;;16.42;12.10;;;13.80;99.90;;;;;;5027687;28;20264;-63
2023/07/07 04:30:58;;;;;;;15.52;12.18;;;13.80;99.90;;;;;;5037509;28;20037;-63
2023/07/07 04:33:26;;;;;;;13.82;11.25;;;13.90;99.90;;;;;;5035350;28;20068;-62
2023/07/07 04:35:57;;;;;;;17.77;12.20;;;13.90;99.90;;;;;;5035740;28;20045;-63
2023/07/07 04:38:30;;;;;;;17.85;12.63;;;13.90;99.90;;;;;;5030683;28;20512;-63
2023/07/07 04:41:06;;;;;;;18.58;12.88;;;14.00;99.90;;;;;;5037378;28;20272;-63
2023/07/07 04:43:33;;;;;;;13.93;12.23;;;14.00;99.90;;;;;;5031791;28;20069;-63
2023/07/07 04:46:00;;;;;;;19.38;13.27;;;14.00;99.90;;;;;;5043986;28;20137;-62
2023/07/07 04:48:26;;;;;;;15.88;12.38;;;14.10;99.90;;;;;;5035056;28;20051;-63
2023/07/07 04:50:58;;;;;;;15.93;12.75;;;14.10;99.90;;;;;;5044410;28;20041;-63
2023/07/07 04:53:25;;;;;;;14.90;12.30;;;14.10;99.90;;;;;;5024237;28;20075;-63
2023/07/07 04:55:51;;;;;;;15.45;13.30;;;14.20;99.90;;;;;;5032202;28;20097;-63
2023/07/07 04:58:16;;;;;;;14.52;12.35;;;14.20;99.90;;;;;;5046081;28;20419;-62
2023/07/07 05:00:42;;;;;;;22.27;13.93;;;14.30;99.90;;;;;;5045191;28;20045;-62
2023/07/07 05:03:08;;;;;;;14.90;13.18;;;14.30;99.90;;;;;;5045266;28;20403;-62
2023/07/07 05:05:36;;;;;;;19.17;13.65;;;14.40;99.90;;;;;;5049167;28;20041;-62
2023/07/07 05:08:02;;;;;;;16.05;13.05;;;14.40;99.90;;;;;;5040478;28;20144;-63
2023/07/07 05:10:28;;;;;;;17.08;13.52;;;14.50;99.90;;;;;;5049086;28;20132;-62
2023/07/07 05:12:54;;;;;;;17.85;12.52;;;14.50;99.90;;;;;;5040718;28;20080;-63
2023/07/07 05:15:20;;;;;;;14.85;11.90;;;14.60;99.90;;;;;;5048658;28;20040;-62
2023/07/07 05:17:45;;;;;;;18.02;13.43;;;14.60;99.90;;;;;;5047656;28;20071;-63
2023/07/07 05:20:11;;;;;;;19.35;13.55;;;14.70;99.90;;;;;;5047086;28;20056;-63
2023/07/07 05:22:37;;;;;;;15.25;12.38;;;14.80;99.90;;;;;;5022731;28;20082;-62
2023/07/07 05:25:02;;;;;;;20.73;13.52;;;14.90;99.90;;;;;;5041799;28;20041;-62
2023/07/07 05:27:28;;;;;;;19.90;13.63;;;14.90;99.90;;;;;;5047778;28;20045;-62
2023/07/07 05:29:54;;;;;;;15.95;11.98;;;15.00;99.90;;;;;;5046452;28;20037;-63
2023/07/07 05:32:19;;;;;;;15.30;13.07;;;15.10;99.90;;;;;;5042156;28;20068;-62
2023/07/07 05:34:45;;;;;;;15.88;11.43;;;15.20;99.90;;;;;;5043120;28;20029;-63
2023/07/07 05:37:11;;;;;;;17.80;12.98;;;15.30;99.90;;;;;;5047550;28;20051;-63
2023/07/07 05:39:37;;;;;;;15.20;12.18;;;15.40;99.90;;;;;;5025710;28;20037;-63
2023/07/07 05:42:02;;;;;;;16.77;13.02;;;15.50;99.90;;;;;;5025177;28;20043;-63
2023/07/07 05:44:28;;;;;;;17.63;12.43;;;15.60;99.90;;;;;;5030779;28;20496;-63
2023/07/07 05:46:54;;;;;;;17.17;12.02;;;15.70;99.90;;;;;;5020141;28;20036;-62
2023/07/07 05:49:19;;;;;;;15.60;11.75;;;15.80;99.90;;;;;;5028847;28;20155;-63
2023/07/07 05:51:45;;;;;;;15.10;10.95;;;15.90;99.90;;;;;;5041570;28;20129;-62
2023/07/07 05:54:11;;;;;;;15.95;11.45;;;16.00;99.90;;;;;;5040650;28;20037;-63
2023/07/07 05:56:36;;;;;;;18.20;12.63;;;16.10;99.90;;;;;;5045074;28;20045;-63
2023/07/07 05:59:03;;;;;;;12.45;10.93;;;16.20;99.90;;;;;;5041046;28;20519;-62
2023/07/07 06:01:29;;;;;;;17.38;11.75;;;16.30;99.90;;;;;;5040956;28;20042;-63
2023/07/07 06:03:55;;;;;;;18.65;11.52;;;16.40;99.90;;;;;;5041088;28;20424;-62
2023/07/07 06:06:21;;;;;;;16.35;11.05;;;16.50;99.90;;;;;;5046472;28;20041;-63
2023/07/07 06:08:46;;;;;;;14.40;10.63;;;16.60;99.90;;;;;;5029390;28;20132;-63
2023/07/07 06:11:12;;;;;;;12.88;10.77;;;16.70;99.90;;;;;;5023102;28;20481;-62
2023/07/07 06:13:38;;;;;;;16.17;10.70;;;16.80;99.90;;;;;;5038479;28;20530;-63
2023/07/07 06:16:05;;;;;;;14.70;10.20;;;16.90;99.90;;;;;;5042934;28;20088;-63
2023/07/07 06:18:31;;;;;;;17.50;11.73;;;17.00;99.90;;;;;;5046630;28;20194;-63
2023/07/07 06:20:59;;;;;;;14.80;11.02;;;17.10;99.90;;;;;;5039840;28;20065;-63
2023/07/07 06:23:26;;;;;;;12.90;10.13;;;17.20;99.90;;;;;;5034222;28;20044;-63
2023/07/07 06:25:52;;;;;;;15.40;11.80;;;17.30;99.90;;;;;;5025086;28;20041;-63
2023/07/07 06:28:18;;;;;;;13.27;11.15;;;17.40;99.90;;;;;;5024277;28;20291;-62
2023/07/07 06:30:47;;;;;;;12.25;10.63;;;17.50;99.90;;;;;;5040024;28;20037;-62
2023/07/07 06:33:13;;;;;;;17.42;10.40;;;17.50;99.90;;;;;;5034832;28;20053;-62
2023/07/07 06:35:38;;;;;;;17.73;11.45;;;17.60;99.90;;;;;;5022793;28;20159;-63
2023/07/07 06:38:04;;;;;;;12.00;10.38;;;17.70;99.90;;;;;;5047006;28;20504;-62
2023/07/07 06:40:30;;;;;;;11.57;9.30;;;17.80;99.90;;;;;;5043097;28;20034;-63
2023/07/07 06:42:58;;;;;;;12.77;9.65;;;17.90;99.90;;;;;;5036579;28;20183;-63
2023/07/07 06:45:23;;;;;;;11.70;9.40;;;18.00;99.90;;;;;;5040688;28;20076;-63
2023/07/07 06:47:49;;;;;;;12.77;9.65;;;18.10;99.90;;;;;;5045735;28;20084;-63
2023/07/07 06:50:27;;;;;;;12.70;9.98;;;18.20;99.90;;;;;;5039923;28;20128;-63
2023/07/07 06:52:53;;;;;;;14.20;9.55;;;18.40;99.90;;;;;;5024708;28;20553;-63
2023/07/07 06:55:19;;;;;;;13.48;9.50;;;18.50;99.90;;;;;;5027041;28;20133;-63
2023/07/07 06:57:46;;;;;;;14.40;9.27;;;18.60;99.90;;;;;;5041680;28;20032;-63
2023/07/07 07:00:13;;;;;;;22.85;9.50;;;18.70;99.90;;;;;;5042727;28;20037;-63
2023/07/07 07:02:39;;;;;;;11.85;9.25;;;18.80;99.90;;;;;;5042363;28;20515;-63
2023/07/07 07:05:05;;;;;;;12.82;9.23;;;18.90;99.90;;;;;;5043376;28;20052;-63
2023/07/07 07:07:31;;;;;;;11.05;8.88;;;19.00;99.90;;;;;;5025796;28;20048;-63
2023/07/07 07:09:57;;;;;;;12.45;9.00;;;19.20;99.90;;;;;;5035666;28;20041;-63
2023/07/07 07:12:23;;;;;;;12.15;8.35;;;19.20;99.90;;;;;;5043378;28;20141;-63
2023/07/07 07:14:49;;;;;;;13.05;8.98;;;19.30;99.90;;;;;;5030188;28;20127;-63
2023/07/07 07:17:14;;;;;;;14.52;9.48;;;19.40;99.90;;;;;;5044019;28;20040;-63
2023/07/07 07:19:40;;;;;;;11.85;8.93;;;19.50;99.90;;;;;;5045699;28;20103;-63
2023/07/07 07:22:06;;;;;;;11.05;8.25;;;19.60;99.90;;;;;;5018872;28;20037;-63
2023/07/07 07:24:32;;;;;;;11.35;8.38;;;19.70;99.90;;;;;;5036704;28;20493;-63
2023/07/07 07:26:57;;;;;;;10.05;8.02;;;19.80;99.90;;;;;;5013758;28;20163;-63
2023/07/07 07:29:23;;;;;;;11.98;7.80;;;19.90;99.90;;;;;;5039513;28;20037;-63
2023/07/07 07:31:49;;;;;;;10.30;7.82;;;20.00;99.90;;;;;;5038924;28;20029;-63
2023/07/07 07:34:25;;;;;;;8.98;7.00;;;20.20;99.90;;;;;;5043155;28;20486;-63
2023/07/07 07:36:52;;;;;;;9.05;7.05;;;20.30;99.90;;;;;;5039101;28;20106;-63
2023/07/07 07:39:18;;;;;;;9.55;6.85;;;20.40;99.90;;;;;;5043697;28;20045;-63
2023/07/07 07:41:49;;;;;;;11.45;7.72;;;20.50;99.90;;;;;;5020695;28;20501;-63
2023/07/07 07:44:17;;;;;;;8.25;6.25;;;20.60;99.90;;;;;;5040480;28;20045;-63
2023/07/07 07:46:44;;;;;;;11.55;6.85;;;20.70;99.90;;;;;;5042725;28;20048;-63
2023/07/07 07:49:11;;;;;;;10.57;6.22;;;20.80;99.90;;;;;;5034852;28;20037;-63
2023/07/07 07:51:38;;;;;;;7.25;5.80;;;20.90;99.90;;;;;;5036738;28;20045;-63
2023/07/07 07:54:09;;;;;;;10.60;6.35;;;21.00;99.90;;;;;;5028167;28;20051;-63
2023/07/07 07:56:36;;;;;;;8.50;5.75;;;21.10;99.90;;;;;;5040469;28;20049;-63
2023/07/07 07:59:03;;;;;;;8.73;5.50;;;21.20;99.90;;;;;;5036806;28;20103;-63
2023/07/07 08:01:29;;;;;;;9.88;5.65;;;21.30;99.90;;;;;;5045518;28;20056;-63
2023/07/07 08:03:55;;;;;;;10.23;5.47;;;21.40;99.90;;;;;;5044001;28;20037;-63
2023/07/07 08:06:21;;;;;;;7.75;4.80;;;21.50;99.90;;;;;;5047605;28;20480;-63
2023/07/07 08:08:47;;;;;;;6.57;4.32;;;21.60;99.90;;;;;;5041628;28;20040;-63
2023/07/07 08:11:16;;;;;;;6.75;4.40;;;21.70;99.90;;;;;;5045621;28;20037;-62
2023/07/07 08:13:42;;;;;;;7.80;4.85;;;21.80;99.90;;;;;;5039632;28;20419;-63
2023/07/07 08:16:12;;;;;;;7.90;5.15;;;21.90;99.90;;;;;;5034016;28;20060;-62
2023/07/07 08:18:39;;;;;;;6.60;4.80;;;22.00;99.90;;;;;;5043002;28;20427;-63
2023/07/07 08:21:05;;;;;;;7.60;4.22;;;22.10;99.90;;;;;;5038532;28;20044;-63
2023/07/07 08:23:30;;;;;;;6.63;4.32;;;22.10;99.70;;;;;;5026598;28;20477;-63
2023/07/07 08:25:56;;;;;;;7.07;4.50;;;22.30;99.70;;;;;;5032917;28;20116;-63
2023/07/07 08:28:22;;;;;;;6.68;4.05;;;22.30;99.20;;;;;;5024852;28;20136;-62
2023/07/07 08:30:47;;;;;;;6.95;4.00;;;22.50;99.50;;;;;;5024334;28;20044;-62
2023/07/07 08:33:13;;;;;;;8.10;3.63;;;22.50;98.90;;;;;;5035491;28;20037;-63
2023/07/07 08:35:39;;;;;;;7.45;4.03;;;22.60;98.90;;;;;;5038235;28;20072;-63
2023/07/07 08:38:05;;;;;;;5.28;3.60;;;22.70;98.90;;;;;;5045422;28;20099;-62
2023/07/07 08:40:57;;;;;;;5.97;3.60;;;22.80;98.50;;;;;;5038873;28;20033;-63
2023/07/07 08:43:24;;;;;;;6.07;3.38;;;23.00;98.40;;;;;;5036936;28;20053;-63
2023/07/07 08:46:06;;;;;;;7.63;3.70;;;23.00;98.00;;;;;;5040784;28;20466;-62
2023/07/07 08:48:53;;;;;;;5.63;3.60;;;23.10;97.50;;;;;;5031832;28;20427;-62
2023/07/07 08:51:31;;;;;;;7.85;3.28;;;23.20;97.30;;;;;;5036862;28;20047;-62
2023/07/07 08:54:08;;;;;;;8.73;3.20;;;23.20;96.50;;;;;;5018769;28;20171;-62
2023/07/07 08:56:44;;;;;;;6.90;3.42;;;23.30;96.90;;;;;;5025194;28;20128;-62
2023/07/07 08:59:16;;;;;;;6.47;3.58;;;23.40;96.90;;;;;;5042170;28;20091;-62
2023/07/07 09:01:46;;;;;;;5.43;2.60;;;23.50;96.80;;;;;;5043972;28;20044;-63
2023/07/07 09:04:30;;;;;;;6.53;2.97;;;23.60;96.20;;;;;;5025754;28;20037;-63
2023/07/07 09:07:04;;;;;;;4.72;3.00;;;23.70;95.50;;;;;;5040364;28;20033;-63
2023/07/07 09:09:51;;;;;;;4.72;2.97;;;23.80;95.30;;;;;;5039238;28;20048;-62
2023/07/07 09:12:31;;;;;;;9.48;4.10;;;23.90;94.70;;;;;;5046539;28;20388;-62
2023/07/07 09:14:59;;;;;;;6.50;3.33;;;24.00;94.30;;;;;;5046465;28;20071;-62
2023/07/07 09:17:36;;;;;;;5.72;3.30;;;24.10;94.70;;;;;;5037240;28;20069;-62
2023/07/07 09:20:04;;;;;;;13.70;2.88;;;24.20;94.70;;;;;;5037455;28;20116;-63
2023/07/07 09:22:45;;;;;;;4.82;2.67;;;24.20;94.70;;;;;;5034394;28;20112;-62
2023/07/07 09:25:18;;;;;;;5.68;2.60;;;24.40;94.80;;;;;;5019319;28;20037;-63
2023/07/07 09:27:56;;;;;;;5.05;2.58;;;24.50;93.30;;;;;;5044132;28;20041;-62
2023/07/07 09:30:34;;;;;;;4.88;2.40;;;24.50;92.30;;;;;;5032997;28;20047;-62
2023/07/07 09:33:00;;;;;;;6.07;2.42;;;24.60;92.60;;;;;;5033255;28;20553;-62
2023/07/07 09:35:34;;;;;;;6.05;2.70;;;24.60;92.00;;;;;;5033069;28;20060;-62
2023/07/07 09:38:18;;;;;;;4.43;2.40;;;24.70;92.00;;;;;;5037025;28;20037;-62
2023/07/07 09:41:09;;;;;;;4.53;2.20;;;24.80;91.50;;;;;;5042881;28;20045;-62
2023/07/07 09:43:42;;;;;;;3.83;2.25;;;24.80;89.90;;;;;;5043889;28;20488;-62
2023/07/07 09:46:20;;;;;;;3.35;2.53;;;24.90;90.10;;;;;;5029468;28;20048;-62
2023/07/07 09:49:10;;;;;;;5.05;2.60;;;24.90;88.10;;;;;;5043956;28;20499;-61
2023/07/07 09:52:31;;;;;;;4.35;2.30;;;25.00;86.90;;;;;;5039150;28;20055;-62
2023/07/07 09:54:59;;;;;;;3.95;2.28;;;25.00;84.40;;;;;;4986773;28;20424;-62
2023/07/07 09:57:28;;;;;;;4.95;2.67;;;25.10;86.40;;;;;;5042592;28;20045;-62
2023/07/07 09:59:58;;;;;;;6.30;2.80;;;25.20;87.00;;;;;;5041571;28;20122;-62
2023/07/07 10:05:20;;;;;;;4.43;2.55;;;25.40;85.90;;;;;;5049354;28;20140;-62
2023/07/07 10:07:47;;;;;;;5.28;2.42;;;25.50;87.50;;;;;;5043425;28;20144;-62
2023/07/07 10:10:14;;;;;;;3.92;2.40;;;25.50;86.00;;;;;;5038102;28;20091;-62
2023/07/07 10:12:40;;;;;;;4.25;2.40;;;25.50;87.00;;;;;;5039890;28;20036;-61
2023/07/07 10:15:44;;;;;;;4.78;2.85;;;25.60;85.20;;;;;;5038750;28;20036;-62
2023/07/07 10:18:24;;;;;;;4.90;2.93;;;25.70;84.50;;;;;;5040669;28;20088;-61
2023/07/07 10:20:51;;;;;;;4.97;2.17;;;25.90;86.90;;;;;;5044009;28;20327;-62
2023/07/07 10:23:16;;;;;;;5.53;2.22;;;26.00;86.00;;;;;;5043352;28;20136;-62
2023/07/07 10:25:44;;;;;;;4.30;2.72;;;26.00;85.10;;;;;;5046613;28;20124;-62
2023/07/07 10:28:14;;;;;;;4.38;2.33;;;26.10;85.70;;;;;;5025039;28;20041;-62
2023/07/07 10:30:41;;;;;;;6.05;2.55;;;26.10;82.50;;;;;;5039405;28;20444;-61
2023/07/07 10:33:17;;;;;;;4.07;2.05;;;26.20;84.00;;;;;;5037051;28;20034;-62
2023/07/07 10:35:43;;;;;;;3.85;2.42;;;26.30;83.60;;;;;;5040275;28;20044;-62
2023/07/07 10:38:10;;;;;;;6.13;2.65;;;26.50;83.60;;;;;;5044596;28;20072;-62
2023/07/07 10:40:37;;;;;;;3.30;2.35;;;26.50;83.20;;;;;;5038786;28;20428;-62
2023/07/07 10:43:05;;;;;;;4.95;2.53;;;26.60;83.60;;;;;;5039845;28;20238;-62
2023/07/07 10:45:31;;;;;;;5.05;2.35;;;26.70;83.40;;;;;;5042650;28;20045;-62
2023/07/07 10:47:57;;;;;;;5.10;2.70;;;26.80;84.10;;;;;;5047068;28;20162;-62
2023/07/07 10:50:27;;;;;;;4.20;2.65;;;26.90;82.90;;;;;;5043787;28;20527;-62
2023/07/07 10:53:21;;;;;;;4.18;2.60;;;26.80;82.60;;;;;;5024003;28;20046;-62
2023/07/07 10:56:23;;;;;;;4.97;2.42;;;26.80;83.20;;;;;;5039997;28;20041;-62
2023/07/07 10:59:19;;;;;;;4.45;2.47;;;27.00;83.00;;;;;;5031348;28;20083;-62
2023/07/07 11:02:03;;;;;;;4.50;2.47;;;27.10;81.60;;;;;;5040992;28;20036;-62
2023/07/07 11:05:09;;;;;;;5.03;2.35;;;26.90;80.30;;;;;;5037237;28;20136;-62
2023/07/07 11:08:01;;;;;;;6.22;2.22;;;26.90;81.40;;;;;;5000528;28;20049;-62
2023/07/07 11:10:45;;;;;;;3.92;2.67;;;27.10;81.60;;;;;;5041910;28;20271;-62
2023/07/07 11:13:23;;;;;;;5.63;2.53;;;27.30;81.80;;;;;;5046365;28;20132;-62
2023/07/07 11:16:07;;;;;;;6.50;2.67;;;27.40;81.90;;;;;;5044205;28;20037;-62
2023/07/07 11:19:09;;;;;;;5.50;2.45;;;27.50;80.90;;;;;;5039517;28;20404;-62
2023/07/07 11:21:56;;;;;;;4.38;2.45;;;27.60;82.10;;;;;;5041443;28;20045;-62
2023/07/07 11:24:37;;;;;;;4.45;2.15;;;27.90;82.60;;;;;;5046491;28;20040;-62
2023/07/07 11:27:05;;;;;;;5.07;2.55;;;27.90;77.30;;;;;;5044297;28;20094;-62
2023/07/07 11:29:34;;;;;;;4.85;2.42;;;27.90;80.10;;;;;;5048855;28;20112;-62
2023/07/07 11:32:09;;;;;;;4.82;2.13;;;27.80;80.00;;;;;;5037834;28;20040;-62
2023/07/07 11:34:54;;;;;;;3.92;2.60;;;27.90;80.80;;;;;;5041558;28;20096;-62
2023/07/07 11:37:38;;;;;;;4.10;2.60;;;28.10;82.00;;;;;;5037232;28;20076;-62
2023/07/07 11:40:18;;;;;;;8.90;2.53;;;28.10;80.80;;;;;;5046454;28;20701;-62
2023/07/07 11:43:05;;;;;;;4.00;2.55;;;28.20;80.60;;;;;;5034505;28;20437;-62
2023/07/07 11:46:08;;;;;;;3.97;2.40;;;28.30;78.20;;;;;;5038811;28;20091;-61
2023/07/07 11:48:54;;;;;;;3.47;2.35;;;28.20;79.00;;;;;;5041508;28;20489;-62
2023/07/07 11:51:38;;;;;;;5.00;2.40;;;28.30;79.00;;;;;;5034235;28;20045;-62
2023/07/07 11:54:09;;;;;;;6.43;2.75;;;28.40;77.40;;;;;;5043857;28;20073;-62
2023/07/07 11:56:56;;;;;;;5.22;2.20;;;28.20;75.80;;;;;;5036911;28;20480;-62
2023/07/07 11:59:45;;;;;;;3.97;2.20;;;28.20;78.60;;;;;;5034195;28;20067;-62
2023/07/07 12:02:25;;;;;;;5.15;2.63;;;28.30;78.20;;;;;;5041308;28;20100;-62
2023/07/07 12:04:54;;;;;;;3.97;2.33;;;28.40;75.80;;;;;;5046565;28;20049;-62
2023/07/07 12:07:29;;;;;;;4.63;2.40;;;28.30;74.40;;;;;;5042760;28;20053;-61
2023/07/07 12:10:00;;;;;;;4.22;2.38;;;28.10;76.00;;;;;;5040200;28;20041;-61
2023/07/07 12:12:38;;;;;;;5.38;2.70;;;28.20;77.30;;;;;;5040160;28;20076;-62
2023/07/07 12:15:18;;;;;;;4.90;2.75;;;28.10;74.60;;;;;;5046450;28;20087;-62
2023/07/07 12:18:04;;;;;;;4.55;2.47;;;27.80;75.90;;;;;;5040067;28;20058;-62
2023/07/07 12:20:34;;;;;;;3.83;2.40;;;28.00;76.90;;;;;;5044729;28;20516;-62
2023/07/07 12:23:01;;;;;;;3.45;2.63;;;28.30;77.50;;;;;;5018981;28;20116;-62
2023/07/07 12:25:29;;;;;;;3.65;2.45;;;28.40;75.00;;;;;;5042403;28;20037;-62
2023/07/07 12:27:55;;;;;;;3.85;2.42;;;28.50;75.40;;;;;;5043872;28;20071;-61
2023/07/07 12:30:43;;;;;;;5.15;2.88;;;28.50;75.10;;;;;;5021419;28;20052;-62
2023/07/07 12:33:10;;;;;;;4.38;2.45;;;28.60;74.30;;;;;;5037449;28;20416;-62
2023/07/07 12:35:58;;;;;;;4.50;2.30;;;28.30;74.20;;;;;;5037815;28;20029;-62
2023/07/07 12:38:26;;;;;;;4.40;2.92;;;28.20;75.50;;;;;;5042815;28;20391;-62
2023/07/07 12:41:09;;;;;;;4.20;2.45;;;28.40;76.50;;;;;;5041626;28;20029;-62
2023/07/07 12:43:44;;;;;;;3.78;2.40;;;28.50;76.10;;;;;;5039979;28;20501;-62
2023/07/07 12:46:23;;;;;;;4.55;2.85;;;28.70;76.80;;;;;;5041299;28;20103;-62
2023/07/07 12:48:52;;;;;;;4.95;2.97;;;28.70;74.70;;;;;;5036501;28;20041;-62
2023/07/07 12:51:18;;;;;;;5.82;2.83;;;28.70;74.40;;;;;;5037869;28;20041;-62
2023/07/07 12:53:47;;;;;;;4.18;2.83;;;28.70;73.60;;;;;;5040676;28;20075;-62
2023/07/07 12:56:31;;;;;;;3.95;2.65;;;28.50;72.40;;;;;;5042003;28;20082;-61
2023/07/07 12:58:58;;;;;;;3.67;2.55;;;28.00;72.60;;;;;;5041749;28;20372;-62
2023/07/07 13:01:39;;;;;;;4.95;3.10;;;27.60;73.60;;;;;;5043734;28;20570;-62